sensor_id;sensor_type;location;lat;lon;timestamp;temperature;humidity
19561;DHT22;9927;47.792;10.616;2022-12-18T04:01:48;-3.90;99.90
19561;DHT22;9927;47.792;10.616;2022-12-18T04:04:18;-3.90;99.90
19561;DHT22;9927;47.792;10.616;2022-12-18T04:06:47;-3.90;99.90
19561;DHT22;9927;47.792;10.616;2022-12-18T04:09:15;-3.70;99.90
19561;DHT22;9927;47.792;10.616;2022-12-18T04:11:42;-3.90;99.90
19561;DHT22;9927;47.792;10.616;2022-12-18T04:14:11;-3.90;99.90
19561;DHT22;9927;47.792;10.616;2022-12-18T04:16:44;-3.90;99.90
19561;DHT22;9927;47.792;10.616;2022-12-18T04:19:11;-3.90;99.90
19561;DHT22;9927;47.792;10.616;2022-12-18T04:21:38;-3.80;99.90
19561;DHT22;9927;47.792;10.616;2022-12-18T04:24:06;-3.80;99.90
19561;DHT22;9927;47.792;10.616;2022-12-18T04:26:33;-3.90;99.90
19561;DHT22;9927;47.792;10.616;2022-12-18T04:29:00;-3.70;99.90
19561;DHT22;9927;47.792;10.616;2022-12-18T04:31:28;-3.80;99.90
19561;DHT22;9927;47.792;10.616;2022-12-18T04:33:55;-4.00;99.90
19561;DHT22;9927;47.792;10.616;2022-12-18T04:36:22;-4.10;99.90
19561;DHT22;9927;47.792;10.616;2022-12-18T04:38:49;-4.00;99.90
19561;DHT22;9927;47.792;10.616;2022-12-18T04:41:17;-4.00;99.90
19561;DHT22;9927;47.792;10.616;2022-12-18T04:43:44;-3.80;99.90
19561;DHT22;9927;47.792;10.616;2022-12-18T04:46:11;-3.70;99.90
19561;DHT22;9927;47.792;10.616;2022-12-18T04:48:39;-3.60;99.90
19561;DHT22;9927;47.792;10.616;2022-12-18T04:51:06;-3.60;99.90
19561;DHT22;9927;47.792;10.616;2022-12-18T04:53:34;-3.60;99.90
19561;DHT22;9927;47.792;10.616;2022-12-18T04:56:10;-3.70;99.90
19561;DHT22;9927;47.792;10.616;2022-12-18T04:58:39;-3.70;99.90
19561;DHT22;9927;47.792;10.616;2022-12-18T05:01:07;-3.70;99.90
19561;DHT22;9927;47.792;10.616;2022-12-18T05:03:36;-3.70;99.90
19561;DHT22;9927;47.792;10.616;2022-12-18T05:06:05;-3.70;99.90
19561;DHT22;9927;47.792;10.616;2022-12-18T05:08:33;-3.80;99.90
19561;DHT22;9927;47.792;10.616;2022-12-18T05:11:08;-3.70;99.90
19561;DHT22;9927;47.792;10.616;2022-12-18T05:13:36;-3.70;99.90
19561;DHT22;9927;47.792;10.616;2022-12-18T05:16:06;-3.70;99.90
19561;DHT22;9927;47.792;10.616;2022-12-18T05:18:34;-3.60;99.90
19561;DHT22;9927;47.792;10.616;2022-12-18T05:21:01;-3.60;99.90
19561;DHT22;9927;47.792;10.616;2022-12-18T05:23:29;-3.70;99.90
19561;DHT22;9927;47.792;10.616;2022-12-18T05:26:02;-3.70;99.90
19561;DHT22;9927;47.792;10.616;2022-12-18T05:28:31;-3.80;99.90
19561;DHT22;9927;47.792;10.616;2022-12-18T05:31:01;-3.80;99.90
19561;DHT22;9927;47.792;10.616;2022-12-18T05:33:32;-4.20;99.90
19561;DHT22;9927;47.792;10.616;2022-12-18T05:36:03;-4.20;99.90
19561;DHT22;9927;47.792;10.616;2022-12-18T05:38:32;-4.00;99.90
19561;DHT22;9927;47.792;10.616;2022-12-18T05:41:00;-3.90;99.90
19561;DHT22;9927;47.792;10.616;2022-12-18T05:43:28;-3.90;99.90
19561;DHT22;9927;47.792;10.616;2022-12-18T05:45:55;-3.90;99.90
19561;DHT22;9927;47.792;10.616;2022-12-18T05:48:23;-3.90;99.90
19561;DHT22;9927;47.792;10.616;2022-12-18T05:50:51;-4.00;99.90
19561;DHT22;9927;47.792;10.616;2022-12-18T05:53:19;-3.90;99.90
19561;DHT22;9927;47.792;10.616;2022-12-18T05:55:47;-4.00;99.90
19561;DHT22;9927;47.792;10.616;2022-12-18T05:58:15;-4.20;99.90
19561;DHT22;9927;47.792;10.616;2022-12-18T06:00:45;-4.10;99.90
19561;DHT22;9927;47.792;10.616;2022-12-18T06:03:13;-3.90;99.90
19561;DHT22;9927;47.792;10.616;2022-12-18T06:05:42;-3.90;99.90
19561;DHT22;9927;47.792;10.616;2022-12-18T06:08:11;-4.10;99.90
19561;DHT22;9927;47.792;10.616;2022-12-18T06:10:39;-4.00;99.90
19561;DHT22;9927;47.792;10.616;2022-12-18T06:13:07;-3.90;99.90
19561;DHT22;9927;47.792;10.616;2022-12-18T06:15:37;-3.90;99.90
19561;DHT22;9927;47.792;10.616;2022-12-18T06:18:05;-4.00;99.90
19561;DHT22;9927;47.792;10.616;2022-12-18T06:20:32;-4.00;99.90
19561;DHT22;9927;47.792;10.616;2022-12-18T06:23:00;-4.10;99.90
19561;DHT22;9927;47.792;10.616;2022-12-18T06:25:27;-4.10;99.90
19561;DHT22;9927;47.792;10.616;2022-12-18T06:27:54;-4.00;99.90
19561;DHT22;9927;47.792;10.616;2022-12-18T06:30:22;-4.10;99.90
19561;DHT22;9927;47.792;10.616;2022-12-18T06:32:49;-4.00;99.90
19561;DHT22;9927;47.792;10.616;2022-12-18T06:35:23;-3.80;99.90
19561;DHT22;9927;47.792;10.616;2022-12-18T06:37:50;-3.80;99.90
19561;DHT22;9927;47.792;10.616;2022-12-18T06:40:18;-3.90;99.90
19561;DHT22;9927;47.792;10.616;2022-12-18T06:42:45;-4.00;99.90
19561;DHT22;9927;47.792;10.616;2022-12-18T06:45:13;-4.20;99.90
19561;DHT22;9927;47.792;10.616;2022-12-18T06:47:42;-4.10;99.90
19561;DHT22;9927;47.792;10.616;2022-12-18T06:50:10;-4.00;99.90
19561;DHT22;9927;47.792;10.616;2022-12-18T06:52:38;-4.10;99.90
19561;DHT22;9927;47.792;10.616;2022-12-18T06:55:07;-4.30;99.90
19561;DHT22;9927;47.792;10.616;2022-12-18T06:57:36;-4.40;99.90
19561;DHT22;9927;47.792;10.616;2022-12-18T07:00:05;-4.30;99.90
19561;DHT22;9927;47.792;10.616;2022-12-18T07:02:33;-4.30;99.90
19561;DHT22;9927;47.792;10.616;2022-12-18T07:05:01;-4.40;99.90
19561;DHT22;9927;47.792;10.616;2022-12-18T07:07:36;-4.40;99.90
19561;DHT22;9927;47.792;10.616;2022-12-18T07:10:04;-4.30;99.90
19561;DHT22;9927;47.792;10.616;2022-12-18T07:12:31;-4.10;99.90
19561;DHT22;9927;47.792;10.616;2022-12-18T07:14:58;-4.10;99.90
19561;DHT22;9927;47.792;10.616;2022-12-18T07:17:26;-4.30;99.90
19561;DHT22;9927;47.792;10.616;2022-12-18T07:19:53;-4.30;99.90
19561;DHT22;9927;47.792;10.616;2022-12-18T07:22:20;-4.30;99.90
19561;DHT22;9927;47.792;10.616;2022-12-18T07:24:48;-4.40;99.90
19561;DHT22;9927;47.792;10.616;2022-12-18T07:27:17;-4.40;99.90
19561;DHT22;9927;47.792;10.616;2022-12-18T07:29:44;-4.40;99.90
19561;DHT22;9927;47.792;10.616;2022-12-18T07:32:11;-4.50;99.90
19561;DHT22;9927;47.792;10.616;2022-12-18T07:34:39;-4.50;99.90
19561;DHT22;9927;47.792;10.616;2022-12-18T07:37:06;-4.50;99.90
19561;DHT22;9927;47.792;10.616;2022-12-18T07:39:34;-4.60;99.90
19561;DHT22;9927;47.792;10.616;2022-12-18T07:42:01;-4.60;99.90
19561;DHT22;9927;47.792;10.616;2022-12-18T07:44:48;-4.70;99.90
19561;DHT22;9927;47.792;10.616;2022-12-18T07:47:15;-4.60;99.90
19561;DHT22;9927;47.792;10.616;2022-12-18T07:49:42;-4.40;99.90
19561;DHT22;9927;47.792;10.616;2022-12-18T07:52:10;-4.20;99.90
19561;DHT22;9927;47.792;10.616;2022-12-18T07:54:39;-4.20;99.90
19561;DHT22;9927;47.792;10.616;2022-12-18T07:57:07;-4.50;99.90
19561;DHT22;9927;47.792;10.616;2022-12-18T07:59:55;-4.70;99.90
19561;DHT22;9927;47.792;10.616;2022-12-18T08:02:22;-4.70;99.90
19561;DHT22;9927;47.792;10.616;2022-12-18T08:04:50;-4.70;99.90
19561;DHT22;9927;47.792;10.616;2022-12-18T08:07:17;-4.70;99.90
19561;DHT22;9927;47.792;10.616;2022-12-18T08:09:44;-4.30;99.90
19561;DHT22;9927;47.792;10.616;2022-12-18T08:12:11;-4.50;99.90
19561;DHT22;9927;47.792;10.616;2022-12-18T08:14:39;-4.10;99.90
19561;DHT22;9927;47.792;10.616;2022-12-18T08:17:06;-4.00;99.90
19561;DHT22;9927;47.792;10.616;2022-12-18T08:19:33;-3.80;99.90
19561;DHT22;9927;47.792;10.616;2022-12-18T08:22:01;-3.90;99.90
19561;DHT22;9927;47.792;10.616;2022-12-18T08:24:28;-3.80;99.90
19561;DHT22;9927;47.792;10.616;2022-12-18T08:26:55;-3.80;99.90
19561;DHT22;9927;47.792;10.616;2022-12-18T08:29:44;-3.90;99.90
19561;DHT22;9927;47.792;10.616;2022-12-18T08:32:11;-3.80;99.90
19561;DHT22;9927;47.792;10.616;2022-12-18T08:34:38;-3.70;99.90
19561;DHT22;9927;47.792;10.616;2022-12-18T08:37:06;-3.80;99.90
19561;DHT22;9927;47.792;10.616;2022-12-18T08:39:33;-3.70;99.90
19561;DHT22;9927;47.792;10.616;2022-12-18T08:42:01;-3.50;99.90
19561;DHT22;9927;47.792;10.616;2022-12-18T08:44:47;-3.40;99.90
19561;DHT22;9927;47.792;10.616;2022-12-18T08:47:14;-3.40;99.90
19561;DHT22;9927;47.792;10.616;2022-12-18T08:49:42;-3.60;99.90
19561;DHT22;9927;47.792;10.616;2022-12-18T08:52:09;-3.50;99.90
19561;DHT22;9927;47.792;10.616;2022-12-18T08:54:36;-3.80;99.90
19561;DHT22;9927;47.792;10.616;2022-12-18T08:57:03;-3.70;99.90
19561;DHT22;9927;47.792;10.616;2022-12-18T08:59:30;-3.70;99.90
19561;DHT22;9927;47.792;10.616;2022-12-18T09:01:58;-3.70;99.90
19561;DHT22;9927;47.792;10.616;2022-12-18T09:04:25;-3.70;99.90
19561;DHT22;9927;47.792;10.616;2022-12-18T09:06:55;-3.70;99.90
19561;DHT22;9927;47.792;10.616;2022-12-18T09:09:22;-3.50;99.90
19561;DHT22;9927;47.792;10.616;2022-12-18T09:11:50;-3.00;99.90
19561;DHT22;9927;47.792;10.616;2022-12-18T09:14:17;-2.60;99.90
19561;DHT22;9927;47.792;10.616;2022-12-18T09:16:45;-2.50;99.90
19561;DHT22;9927;47.792;10.616;2022-12-18T09:19:12;-2.60;99.90
19561;DHT22;9927;47.792;10.616;2022-12-18T09:21:40;-2.40;99.90
19561;DHT22;9927;47.792;10.616;2022-12-18T09:24:14;-2.60;99.90
19561;DHT22;9927;47.792;10.616;2022-12-18T09:26:41;-2.60;99.90
19561;DHT22;9927;47.792;10.616;2022-12-18T09:29:14;-2.30;99.90
19561;DHT22;9927;47.792;10.616;2022-12-18T09:31:44;-2.30;99.90
19561;DHT22;9927;47.792;10.616;2022-12-18T09:34:12;-2.30;99.90
19561;DHT22;9927;47.792;10.616;2022-12-18T09:36:39;-2.10;99.90
19561;DHT22;9927;47.792;10.616;2022-12-18T09:39:07;-2.10;99.90
19561;DHT22;9927;47.792;10.616;2022-12-18T09:49:40;-2.20;99.90
19561;DHT22;9927;47.792;10.616;2022-12-18T09:55:00;-2.00;99.90
19561;DHT22;9927;47.792;10.616;2022-12-18T09:57:30;-2.10;99.90
19561;DHT22;9927;47.792;10.616;2022-12-18T10:00:06;-2.00;99.90
19561;DHT22;9927;47.792;10.616;2022-12-18T10:02:35;-1.90;99.90
19561;DHT22;9927;47.792;10.616;2022-12-18T10:05:06;-1.90;99.90
19561;DHT22;9927;47.792;10.616;2022-12-18T10:13:06;-2.10;99.90
19561;DHT22;9927;47.792;10.616;2022-12-18T10:15:51;-2.20;99.90
19561;DHT22;9927;47.792;10.616;2022-12-18T10:18:25;-2.10;99.90
19561;DHT22;9927;47.792;10.616;2022-12-18T10:21:30;-2.10;99.90
19561;DHT22;9927;47.792;10.616;2022-12-18T10:24:20;-2.10;99.90
19561;DHT22;9927;47.792;10.616;2022-12-18T10:26:52;-2.00;99.90
19561;DHT22;9927;47.792;10.616;2022-12-18T10:29:20;-2.10;99.90
19561;DHT22;9927;47.792;10.616;2022-12-18T10:31:47;-2.00;99.90
19561;DHT22;9927;47.792;10.616;2022-12-18T10:34:14;-2.30;99.90
19561;DHT22;9927;47.792;10.616;2022-12-18T10:36:42;-2.30;99.90
19561;DHT22;9927;47.792;10.616;2022-12-18T10:39:20;-2.20;99.90
19561;DHT22;9927;47.792;10.616;2022-12-18T10:42:10;-1.90;99.90
19561;DHT22;9927;47.792;10.616;2022-12-18T10:44:40;-1.90;99.90
19561;DHT22;9927;47.792;10.616;2022-12-18T10:47:14;-2.10;99.90
19561;DHT22;9927;47.792;10.616;2022-12-18T10:49:52;-1.80;99.90
19561;DHT22;9927;47.792;10.616;2022-12-18T10:52:23;-1.70;99.90
19561;DHT22;9927;47.792;10.616;2022-12-18T10:54:54;-1.40;99.90
19561;DHT22;9927;47.792;10.616;2022-12-18T10:57:35;-1.50;99.90
19561;DHT22;9927;47.792;10.616;2022-12-18T11:00:28;-1.70;99.90
19561;DHT22;9927;47.792;10.616;2022-12-18T11:02:56;-1.60;99.90
19561;DHT22;9927;47.792;10.616;2022-12-18T11:05:30;-1.70;99.90
19561;DHT22;9927;47.792;10.616;2022-12-18T11:07:59;-1.90;99.90
19561;DHT22;9927;47.792;10.616;2022-12-18T11:10:35;-2.00;99.90
19561;DHT22;9927;47.792;10.616;2022-12-18T11:13:20;-1.40;99.90
19561;DHT22;9927;47.792;10.616;2022-12-18T11:15:48;-1.40;99.90
19561;DHT22;9927;47.792;10.616;2022-12-18T11:18:20;-1.20;99.90
19561;DHT22;9927;47.792;10.616;2022-12-18T11:21:15;-1.10;99.90
19561;DHT22;9927;47.792;10.616;2022-12-18T11:23:50;-1.80;99.90
19561;DHT22;9927;47.792;10.616;2022-12-18T11:26:19;-1.90;99.90
19561;DHT22;9927;47.792;10.616;2022-12-18T11:28:52;-2.10;99.90
19561;DHT22;9927;47.792;10.616;2022-12-18T11:31:34;-2.10;99.90
19561;DHT22;9927;47.792;10.616;2022-12-18T11:36:58;-1.90;99.90
19561;DHT22;9927;47.792;10.616;2022-12-18T11:39:53;-1.60;99.90
19561;DHT22;9927;47.792;10.616;2022-12-18T11:42:30;-1.70;99.90
19561;DHT22;9927;47.792;10.616;2022-12-18T11:45:08;-1.80;99.90
19561;DHT22;9927;47.792;10.616;2022-12-18T11:53:03;-2.40;99.90
19561;DHT22;9927;47.792;10.616;2022-12-18T12:12:19;-2.30;99.90
19561;DHT22;9927;47.792;10.616;2022-12-18T12:17:32;-2.00;99.90
19561;DHT22;9927;47.792;10.616;2022-12-18T12:23:03;-2.10;99.90
19561;DHT22;9927;47.792;10.616;2022-12-18T12:25:52;-1.80;99.90
19561;DHT22;9927;47.792;10.616;2022-12-18T12:28:57;-1.50;99.90
19561;DHT22;9927;47.792;10.616;2022-12-18T12:34:20;-1.60;99.90
19561;DHT22;9927;47.792;10.616;2022-12-18T12:36:57;-1.50;99.90
19561;DHT22;9927;47.792;10.616;2022-12-18T12:39:36;-1.80;99.90
19561;DHT22;9927;47.792;10.616;2022-12-18T12:42:10;-2.00;99.90
19561;DHT22;9927;47.792;10.616;2022-12-18T12:44:58;-1.70;99.90
19561;DHT22;9927;47.792;10.616;2022-12-18T12:47:33;-1.70;99.90
19561;DHT22;9927;47.792;10.616;2022-12-18T12:50:06;-2.20;99.90
19561;DHT22;9927;47.792;10.616;2022-12-18T12:52:59;-2.00;99.90
19561;DHT22;9927;47.792;10.616;2022-12-18T12:55:29;-1.80;99.90
19561;DHT22;9927;47.792;10.616;2022-12-18T12:58:11;-1.60;99.90
19561;DHT22;9927;47.792;10.616;2022-12-18T13:00:53;-1.50;99.90
19561;DHT22;9927;47.792;10.616;2022-12-18T13:06:02;-1.50;99.90
19561;DHT22;9927;47.792;10.616;2022-12-18T13:08:58;-1.50;99.90
19561;DHT22;9927;47.792;10.616;2022-12-18T13:14:37;-1.40;99.90
19561;DHT22;9927;47.792;10.616;2022-12-18T13:19:51;-1.10;99.90
19561;DHT22;9927;47.792;10.616;2022-12-18T13:22:23;-1.20;99.90
19561;DHT22;9927;47.792;10.616;2022-12-18T13:24:51;-1.40;99.90
19561;DHT22;9927;47.792;10.616;2022-12-18T13:27:45;-1.40;99.90
19561;DHT22;9927;47.792;10.616;2022-12-18T13:40:54;-1.20;99.90
19561;DHT22;9927;47.792;10.616;2022-12-18T13:43:23;-1.10;99.90
19561;DHT22;9927;47.792;10.616;2022-12-18T13:49:03;-1.20;99.90
19561;DHT22;9927;47.792;10.616;2022-12-18T13:51:33;-1.30;99.90
19561;DHT22;9927;47.792;10.616;2022-12-18T13:57:02;-1.70;99.90
19561;DHT22;9927;47.792;10.616;2022-12-18T13:59:39;-1.70;99.90
19561;DHT22;9927;47.792;10.616;2022-12-18T14:02:14;-1.70;99.90
19561;DHT22;9927;47.792;10.616;2022-12-18T14:04:45;-1.70;99.90
19561;DHT22;9927;47.792;10.616;2022-12-18T14:07:24;-1.80;99.90
19561;DHT22;9927;47.792;10.616;2022-12-18T14:09:58;-2.20;99.90
19561;DHT22;9927;47.792;10.616;2022-12-18T14:12:49;-2.40;99.90
19561;DHT22;9927;47.792;10.616;2022-12-18T14:15:36;-2.30;99.90
19561;DHT22;9927;47.792;10.616;2022-12-18T14:20:44;-2.30;99.90
19561;DHT22;9927;47.792;10.616;2022-12-18T14:26:01;-2.10;99.90
19561;DHT22;9927;47.792;10.616;2022-12-18T14:28:32;-2.40;99.90
19561;DHT22;9927;47.792;10.616;2022-12-18T14:30:59;-2.70;99.90
19561;DHT22;9927;47.792;10.616;2022-12-18T14:33:27;-2.60;99.90
19561;DHT22;9927;47.792;10.616;2022-12-18T14:36:04;-2.60;99.90
19561;DHT22;9927;47.792;10.616;2022-12-18T14:38:36;-2.50;99.90
19561;DHT22;9927;47.792;10.616;2022-12-18T14:41:15;-2.50;99.90
19561;DHT22;9927;47.792;10.616;2022-12-18T14:43:44;-2.60;99.90
19561;DHT22;9927;47.792;10.616;2022-12-18T14:46:28;-2.60;99.90
19561;DHT22;9927;47.792;10.616;2022-12-18T14:48:57;-2.70;99.90
19561;DHT22;9927;47.792;10.616;2022-12-18T14:51:26;-2.60;99.90
19561;DHT22;9927;47.792;10.616;2022-12-18T14:53:56;-2.50;99.90
19561;DHT22;9927;47.792;10.616;2022-12-18T14:58:58;-2.40;99.90
19561;DHT22;9927;47.792;10.616;2022-12-18T15:01:35;-2.30;99.90
19561;DHT22;9927;47.792;10.616;2022-12-18T15:04:05;-2.40;99.90
19561;DHT22;9927;47.792;10.616;2022-12-18T15:09:38;-2.70;99.90
19561;DHT22;9927;47.792;10.616;2022-12-18T15:12:24;-2.90;99.90
19561;DHT22;9927;47.792;10.616;2022-12-18T15:14:52;-3.30;99.90
19561;DHT22;9927;47.792;10.616;2022-12-18T15:17:23;-3.50;99.90
19561;DHT22;9927;47.792;10.616;2022-12-18T15:19:59;-3.40;99.90
19561;DHT22;9927;47.792;10.616;2022-12-18T15:22:34;-3.30;99.90
19561;DHT22;9927;47.792;10.616;2022-12-18T15:25:03;-3.20;99.90
19561;DHT22;9927;47.792;10.616;2022-12-18T15:27:47;-3.20;99.90
19561;DHT22;9927;47.792;10.616;2022-12-18T15:32:41;-3.40;99.90
19561;DHT22;9927;47.792;10.616;2022-12-18T15:35:22;-3.90;99.90
19561;DHT22;9927;47.792;10.616;2022-12-18T15:37:51;-4.30;99.90
19561;DHT22;9927;47.792;10.616;2022-12-18T15:40:22;-4.30;99.90
19561;DHT22;9927;47.792;10.616;2022-12-18T15:42:53;-4.60;99.90
19561;DHT22;9927;47.792;10.616;2022-12-18T15:45:39;-4.70;99.90
19561;DHT22;9927;47.792;10.616;2022-12-18T15:48:18;-4.50;99.90
19561;DHT22;9927;47.792;10.616;2022-12-18T15:50:46;-4.30;99.90
19561;DHT22;9927;47.792;10.616;2022-12-18T15:53:13;-3.20;99.90
19561;DHT22;9927;47.792;10.616;2022-12-18T15:55:41;-3.90;99.90
19561;DHT22;9927;47.792;10.616;2022-12-18T15:58:27;-3.80;99.90
19561;DHT22;9927;47.792;10.616;2022-12-18T16:00:56;-3.80;99.90
19561;DHT22;9927;47.792;10.616;2022-12-18T16:03:25;-3.90;99.90
19561;DHT22;9927;47.792;10.616;2022-12-18T16:05:52;-3.90;99.90
19561;DHT22;9927;47.792;10.616;2022-12-18T16:08:20;-4.00;99.90
19561;DHT22;9927;47.792;10.616;2022-12-18T16:10:47;-4.00;99.90
19561;DHT22;9927;47.792;10.616;2022-12-18T16:13:16;-3.90;99.90
19561;DHT22;9927;47.792;10.616;2022-12-18T16:15:45;-3.90;99.90
19561;DHT22;9927;47.792;10.616;2022-12-18T16:18:13;-3.90;99.90
19561;DHT22;9927;47.792;10.616;2022-12-18T16:20:40;-3.90;99.90
19561;DHT22;9927;47.792;10.616;2022-12-18T16:23:08;-4.00;99.90
19561;DHT22;9927;47.792;10.616;2022-12-18T16:25:35;-4.20;99.90
19561;DHT22;9927;47.792;10.616;2022-12-18T16:28:02;-4.10;99.90
19561;DHT22;9927;47.792;10.616;2022-12-18T16:30:31;-4.20;99.90
19561;DHT22;9927;47.792;10.616;2022-12-18T16:33:04;-4.40;99.90
19561;DHT22;9927;47.792;10.616;2022-12-18T16:35:33;-4.60;99.90
19561;DHT22;9927;47.792;10.616;2022-12-18T16:38:01;-4.60;99.90
19561;DHT22;9927;47.792;10.616;2022-12-18T16:40:31;-4.80;99.90
19561;DHT22;9927;47.792;10.616;2022-12-18T16:42:59;-4.70;99.90
19561;DHT22;9927;47.792;10.616;2022-12-18T16:45:26;-4.60;99.90
19561;DHT22;9927;47.792;10.616;2022-12-18T16:48:00;-4.40;99.90
19561;DHT22;9927;47.792;10.616;2022-12-18T16:50:27;-4.30;99.90
19561;DHT22;9927;47.792;10.616;2022-12-18T16:52:54;-4.20;99.90
19561;DHT22;9927;47.792;10.616;2022-12-18T16:55:21;-4.20;99.90
19561;DHT22;9927;47.792;10.616;2022-12-18T16:57:49;-4.30;99.90
19561;DHT22;9927;47.792;10.616;2022-12-18T17:00:16;-4.90;99.90
19561;DHT22;9927;47.792;10.616;2022-12-18T17:02:44;-5.10;99.90
19561;DHT22;9927;47.792;10.616;2022-12-18T17:05:13;-5.20;99.90
19561;DHT22;9927;47.792;10.616;2022-12-18T17:07:40;-5.20;99.90
19561;DHT22;9927;47.792;10.616;2022-12-18T17:10:07;-5.10;99.90
19561;DHT22;9927;47.792;10.616;2022-12-18T17:12:36;-5.10;99.90
19561;DHT22;9927;47.792;10.616;2022-12-18T17:15:03;-5.10;99.90
19561;DHT22;9927;47.792;10.616;2022-12-18T17:17:30;-5.10;99.90
19561;DHT22;9927;47.792;10.616;2022-12-18T17:19:58;-5.40;99.90
19561;DHT22;9927;47.792;10.616;2022-12-18T17:22:25;-5.30;99.90
19561;DHT22;9927;47.792;10.616;2022-12-18T17:24:52;-5.20;99.90
19561;DHT22;9927;47.792;10.616;2022-12-18T17:27:20;-5.10;99.90
19561;DHT22;9927;47.792;10.616;2022-12-18T17:29:47;-5.20;99.90
19561;DHT22;9927;47.792;10.616;2022-12-18T17:32:16;-5.10;99.90
19561;DHT22;9927;47.792;10.616;2022-12-18T17:34:44;-5.00;99.90
19561;DHT22;9927;47.792;10.616;2022-12-18T17:37:11;-5.20;99.90
19561;DHT22;9927;47.792;10.616;2022-12-18T17:39:39;-5.30;99.90
19561;DHT22;9927;47.792;10.616;2022-12-18T17:42:06;-5.60;99.90
19561;DHT22;9927;47.792;10.616;2022-12-18T17:44:42;-5.80;99.90
19561;DHT22;9927;47.792;10.616;2022-12-18T17:47:10;-5.70;99.90
19561;DHT22;9927;47.792;10.616;2022-12-18T17:49:38;-5.80;99.90
19561;DHT22;9927;47.792;10.616;2022-12-18T17:52:05;-5.90;99.90
19561;DHT22;9927;47.792;10.616;2022-12-18T17:54:33;-6.10;99.90
19561;DHT22;9927;47.792;10.616;2022-12-18T17:57:01;-6.10;99.90
19561;DHT22;9927;47.792;10.616;2022-12-18T17:59:28;-6.10;99.90
19561;DHT22;9927;47.792;10.616;2022-12-18T18:01:56;-6.10;99.90
19561;DHT22;9927;47.792;10.616;2022-12-18T18:04:23;-6.10;99.90
19561;DHT22;9927;47.792;10.616;2022-12-18T18:06:50;-5.90;99.90
19561;DHT22;9927;47.792;10.616;2022-12-18T18:09:18;-5.80;99.90
19561;DHT22;9927;47.792;10.616;2022-12-18T18:11:45;-5.90;99.90
19561;DHT22;9927;47.792;10.616;2022-12-18T18:14:31;-5.70;99.90
19561;DHT22;9927;47.792;10.616;2022-12-18T18:16:59;-5.50;99.90
19561;DHT22;9927;47.792;10.616;2022-12-18T18:19:32;-5.40;99.90
19561;DHT22;9927;47.792;10.616;2022-12-18T18:21:59;-5.40;99.90
19561;DHT22;9927;47.792;10.616;2022-12-18T18:24:29;-5.30;99.90
19561;DHT22;9927;47.792;10.616;2022-12-18T18:26:56;-5.70;99.90
19561;DHT22;9927;47.792;10.616;2022-12-18T18:29:27;-5.70;99.90
19561;DHT22;9927;47.792;10.616;2022-12-18T18:31:56;-6.00;99.90
19561;DHT22;9927;47.792;10.616;2022-12-18T18:34:26;-6.10;99.90
19561;DHT22;9927;47.792;10.616;2022-12-18T18:36:54;-5.80;99.90
19561;DHT22;9927;47.792;10.616;2022-12-18T18:39:22;-5.50;99.90
19561;DHT22;9927;47.792;10.616;2022-12-18T18:41:49;-5.50;99.90
19561;DHT22;9927;47.792;10.616;2022-12-18T18:44:18;-5.40;99.90
19561;DHT22;9927;47.792;10.616;2022-12-18T18:46:56;-5.60;99.90
19561;DHT22;9927;47.792;10.616;2022-12-18T18:49:24;-5.60;99.90
19561;DHT22;9927;47.792;10.616;2022-12-18T18:51:55;-5.60;99.90
19561;DHT22;9927;47.792;10.616;2022-12-18T18:54:23;-5.40;99.90
19561;DHT22;9927;47.792;10.616;2022-12-18T18:56:51;-5.20;99.90
19561;DHT22;9927;47.792;10.616;2022-12-18T18:59:38;-5.00;99.90
19561;DHT22;9927;47.792;10.616;2022-12-18T19:02:08;-4.80;99.90
19561;DHT22;9927;47.792;10.616;2022-12-18T19:04:37;-4.70;99.90
19561;DHT22;9927;47.792;10.616;2022-12-18T19:07:14;-4.60;99.90
19561;DHT22;9927;47.792;10.616;2022-12-18T19:09:58;-4.60;99.90
19561;DHT22;9927;47.792;10.616;2022-12-18T19:12:31;-4.60;99.90
19561;DHT22;9927;47.792;10.616;2022-12-18T19:15:17;-4.60;99.90
19561;DHT22;9927;47.792;10.616;2022-12-18T19:17:44;-4.70;99.90
19561;DHT22;9927;47.792;10.616;2022-12-18T19:20:14;-4.50;99.90
19561;DHT22;9927;47.792;10.616;2022-12-18T19:22:41;-4.70;99.90
19561;DHT22;9927;47.792;10.616;2022-12-18T19:25:10;-4.60;99.90
19561;DHT22;9927;47.792;10.616;2022-12-18T19:27:37;-4.80;99.90
19561;DHT22;9927;47.792;10.616;2022-12-18T19:30:06;-5.00;99.90
19561;DHT22;9927;47.792;10.616;2022-12-18T19:32:34;-5.00;99.90
19561;DHT22;9927;47.792;10.616;2022-12-18T19:35:01;-5.00;99.90
19561;DHT22;9927;47.792;10.616;2022-12-18T19:37:29;-4.70;99.90
19561;DHT22;9927;47.792;10.616;2022-12-18T19:39:56;-4.80;99.90
19561;DHT22;9927;47.792;10.616;2022-12-18T19:42:26;-4.70;99.90
19561;DHT22;9927;47.792;10.616;2022-12-18T19:45:01;-4.50;99.90
19561;DHT22;9927;47.792;10.616;2022-12-18T19:47:31;-4.20;99.90
19561;DHT22;9927;47.792;10.616;2022-12-18T19:49:58;-4.50;99.90
19561;DHT22;9927;47.792;10.616;2022-12-18T19:52:26;-4.40;99.90
19561;DHT22;9927;47.792;10.616;2022-12-18T19:54:53;-4.40;99.90
19561;DHT22;9927;47.792;10.616;2022-12-18T19:57:20;-4.20;99.90
19561;DHT22;9927;47.792;10.616;2022-12-18T19:59:48;-4.10;99.90
19561;DHT22;9927;47.792;10.616;2022-12-18T20:02:15;-3.90;99.90
19561;DHT22;9927;47.792;10.616;2022-12-18T20:04:43;-4.00;99.90
19561;DHT22;9927;47.792;10.616;2022-12-18T20:07:10;-4.00;99.90
19561;DHT22;9927;47.792;10.616;2022-12-18T20:09:38;-3.90;99.90
19561;DHT22;9927;47.792;10.616;2022-12-18T20:12:05;-3.80;99.90
19561;DHT22;9927;47.792;10.616;2022-12-18T20:14:33;-3.80;99.90
19561;DHT22;9927;47.792;10.616;2022-12-18T20:17:00;-4.10;99.90
19561;DHT22;9927;47.792;10.616;2022-12-18T20:19:27;-4.20;99.90
19561;DHT22;9927;47.792;10.616;2022-12-18T20:21:55;-4.20;99.90
19561;DHT22;9927;47.792;10.616;2022-12-18T20:24:22;-4.00;99.90
19561;DHT22;9927;47.792;10.616;2022-12-18T20:26:49;-3.70;99.90
19561;DHT22;9927;47.792;10.616;2022-12-18T20:29:16;-3.50;99.90
19561;DHT22;9927;47.792;10.616;2022-12-18T20:31:44;-3.40;99.90
19561;DHT22;9927;47.792;10.616;2022-12-18T20:34:11;-3.40;99.90
19561;DHT22;9927;47.792;10.616;2022-12-18T20:36:38;-3.50;99.90
19561;DHT22;9927;47.792;10.616;2022-12-18T20:39:08;-3.60;99.90
19561;DHT22;9927;47.792;10.616;2022-12-18T20:41:36;-3.60;99.90
19561;DHT22;9927;47.792;10.616;2022-12-18T20:44:07;-3.70;99.90
19561;DHT22;9927;47.792;10.616;2022-12-18T20:46:52;-4.00;99.90
19561;DHT22;9927;47.792;10.616;2022-12-18T20:49:20;-3.90;99.90
19561;DHT22;9927;47.792;10.616;2022-12-18T20:51:52;-3.80;99.90
19561;DHT22;9927;47.792;10.616;2022-12-18T20:54:21;-3.60;99.90
19561;DHT22;9927;47.792;10.616;2022-12-18T20:56:48;-3.60;99.90
19561;DHT22;9927;47.792;10.616;2022-12-18T20:59:16;-3.60;99.90
19561;DHT22;9927;47.792;10.616;2022-12-18T21:01:44;-3.50;99.90
19561;DHT22;9927;47.792;10.616;2022-12-18T21:04:16;-3.30;99.90
19561;DHT22;9927;47.792;10.616;2022-12-18T21:06:46;-3.20;99.90
19561;DHT22;9927;47.792;10.616;2022-12-18T21:09:19;-3.10;99.90
19561;DHT22;9927;47.792;10.616;2022-12-18T21:11:46;-3.00;99.90
19561;DHT22;9927;47.792;10.616;2022-12-18T21:14:32;-3.10;99.90
19561;DHT22;9927;47.792;10.616;2022-12-18T21:16:59;-3.30;99.90
19561;DHT22;9927;47.792;10.616;2022-12-18T21:19:28;-3.20;99.90
19561;DHT22;9927;47.792;10.616;2022-12-18T21:21:56;-3.10;99.90